createdAt,value
2019-04-21T00:01:50.723Z,10.10
2019-04-21T00:04:30.865Z,10.10
2019-04-21T00:07:08.738Z,10.10
2019-04-21T00:09:39.778Z,10.00
2019-04-21T00:12:08.951Z,10.00
2019-04-21T00:14:30.263Z,10.00
2019-04-21T00:16:55.222Z,9.90
2019-04-21T00:19:23.049Z,9.90
2019-04-21T00:21:56.377Z,9.80
2019-04-21T00:24:37.482Z,9.80
2019-04-21T00:27:05.300Z,9.70
2019-04-21T00:29:42.527Z,9.70
2019-04-21T00:32:03.315Z,9.70
2019-04-21T00:34:19.435Z,9.60
2019-04-21T00:37:01.267Z,9.60
2019-04-21T00:39:45.083Z,9.60
2019-04-21T00:42:09.794Z,9.60
2019-04-21T00:44:29.838Z,9.50
2019-04-21T00:47:05.498Z,9.40
2019-04-21T00:49:42.778Z,9.40
2019-04-21T00:52:30.258Z,9.40
2019-04-21T00:55:01.746Z,9.40
2019-04-21T00:57:34.282Z,9.30
2019-04-21T01:00:00.886Z,9.30
2019-04-21T01:02:29.754Z,9.20
2019-04-21T01:05:00.209Z,9.20
2019-04-21T01:07:28.266Z,9.10
2019-04-21T01:09:48.588Z,9.10
2019-04-21T01:12:32.117Z,9.10
2019-04-21T01:15:04.825Z,9.00
2019-04-21T01:17:28.742Z,9.00
2019-04-21T01:19:51.213Z,9.00
2019-04-21T01:22:05.039Z,8.90
2019-04-21T01:24:37.632Z,8.90
2019-04-21T01:27:12.659Z,8.90
2019-04-21T01:29:57.672Z,8.90
2019-04-21T01:32:23.679Z,8.80
2019-04-21T01:34:53.007Z,8.80
2019-04-21T01:37:25.198Z,8.70
2019-04-21T01:40:06.551Z,8.70
2019-04-21T01:42:28.842Z,8.60
2019-04-21T01:44:52.291Z,8.60
2019-04-21T01:47:21.838Z,8.50
2019-04-21T01:49:50.162Z,8.50
2019-04-21T01:52:40.839Z,8.50
2019-04-21T01:55:09.071Z,8.50
2019-04-21T01:57:47.038Z,8.40
2019-04-21T02:00:07.099Z,8.40
2019-04-21T02:02:54.959Z,8.40
2019-04-21T02:05:26.206Z,8.40
2019-04-21T02:07:44.844Z,8.40
2019-04-21T02:10:20.877Z,8.30
2019-04-21T02:12:48.380Z,8.30
2019-04-21T02:17:47.037Z,8.30
2019-04-21T02:20:06.971Z,8.20
2019-04-21T02:22:57.900Z,8.20
2019-04-21T02:25:13.996Z,8.20
2019-04-21T02:27:43.034Z,8.20
2019-04-21T02:30:29.409Z,8.20
2019-04-21T02:33:03.876Z,8.20
2019-04-21T02:38:03.797Z,8.20
2019-04-21T02:40:29.810Z,8.20
2019-04-21T02:43:07.221Z,8.10
2019-04-21T02:50:26.093Z,8.10
2019-04-21T02:52:52.372Z,8.00
2019-04-21T02:55:26.261Z,8.00
2019-04-21T02:57:59.499Z,8.00
2019-04-21T03:00:36.842Z,8.00
2019-04-21T03:05:50.847Z,7.90
2019-04-21T03:08:28.057Z,7.90
2019-04-21T03:10:53.298Z,7.80
2019-04-21T03:16:04.879Z,7.80
2019-04-21T03:18:26.378Z,7.70
2019-04-21T03:21:00.257Z,7.70
2019-04-21T03:23:38.244Z,7.60
2019-04-21T03:26:00.851Z,7.60
2019-04-21T03:28:35.660Z,7.60
2019-04-21T03:36:38.423Z,7.50
2019-04-21T03:41:04.496Z,7.40
2019-04-21T03:43:34.857Z,7.50
2019-04-21T03:46:29.617Z,7.40
2019-04-21T03:48:36.444Z,7.50
2019-04-21T03:51:02.750Z,7.50
2019-04-21T03:53:32.365Z,7.40
2019-04-21T03:56:00.639Z,7.40
2019-04-21T04:01:16.443Z,7.50
2019-04-21T04:04:06.979Z,7.50
2019-04-21T04:06:43.088Z,7.50
2019-04-21T04:09:19.609Z,7.50
2019-04-21T04:11:44.152Z,7.60
2019-04-21T04:16:52.264Z,7.70
2019-04-21T04:19:17.978Z,7.80
2019-04-21T04:24:16.882Z,7.90
2019-04-21T04:26:47.518Z,7.90
2019-04-21T04:29:16.276Z,8.00
2019-04-21T04:31:47.600Z,8.00
2019-04-21T04:34:12.731Z,8.10
2019-04-21T04:39:36.487Z,8.20
2019-04-21T04:42:08.100Z,8.30
2019-04-21T04:45:14.449Z,8.30
2019-04-21T04:49:39.653Z,8.50
2019-04-21T04:52:12.314Z,8.50
2019-04-21T04:54:39.100Z,8.60
2019-04-21T04:56:58.654Z,8.60
2019-04-21T04:59:33.679Z,8.70
2019-04-21T05:02:08.740Z,8.70
2019-04-21T05:04:25.395Z,8.70
2019-04-21T05:07:11.833Z,8.70
2019-04-21T05:09:25.302Z,8.80
2019-04-21T05:11:50.088Z,8.80
2019-04-21T05:14:21.810Z,8.90
2019-04-21T05:21:48.359Z,9.10
2019-04-21T05:24:12.396Z,9.20
2019-04-21T05:26:38.968Z,9.30
2019-04-21T05:29:01.764Z,9.40
2019-04-21T05:32:09.308Z,9.50
2019-04-21T05:34:29.038Z,9.60
2019-04-21T05:37:10.714Z,9.70
2019-04-21T05:39:40.967Z,9.80
2019-04-21T05:42:00.739Z,9.90
2019-04-21T05:44:52.283Z,10.00
2019-04-21T05:47:26.286Z,10.10
2019-04-21T05:49:56.106Z,10.20
2019-04-21T05:52:21.528Z,10.30
2019-04-21T05:57:32.374Z,10.40
2019-04-21T05:59:54.762Z,10.50
2019-04-21T06:02:29.303Z,10.60
2019-04-21T06:07:31.333Z,10.90
2019-04-21T06:12:38.171Z,11.00
2019-04-21T06:15:07.018Z,11.20
2019-04-21T06:17:44.634Z,11.60
2019-04-21T06:20:10.508Z,14.00
2019-04-21T06:22:28.895Z,17.20
2019-04-21T06:25:31.167Z,20.70
2019-04-21T06:27:40.375Z,23.80
2019-04-21T06:30:05.228Z,26.60
2019-04-21T06:32:47.258Z,29.10
2019-04-21T06:35:19.668Z,31.20
2019-04-21T06:40:21.501Z,34.00
2019-04-21T06:42:40.129Z,34.50
2019-04-21T06:45:12.860Z,35.00
2019-04-21T06:47:42.333Z,35.70
2019-04-21T06:50:12.236Z,36.30
2019-04-21T06:52:52.215Z,36.90
2019-04-21T06:55:16.428Z,37.30
2019-04-21T06:57:51.646Z,37.70
2019-04-21T07:00:15.069Z,38.20
2019-04-21T07:05:20.432Z,39.50
2019-04-21T07:08:07.619Z,40.20
2019-04-21T07:12:51.017Z,40.90
2019-04-21T07:15:27.822Z,41.30
2019-04-21T07:18:00.120Z,41.80
2019-04-21T07:20:28.057Z,42.20
2019-04-21T07:23:01.817Z,42.50
2019-04-21T07:25:32.569Z,42.60
2019-04-21T07:27:58.025Z,42.80
2019-04-21T07:33:22.097Z,43.00
2019-04-21T07:35:31.905Z,43.10
2019-04-21T07:38:01.278Z,43.20
2019-04-21T07:40:32.068Z,43.10
2019-04-21T07:42:57.855Z,43.20
2019-04-21T07:45:26.169Z,43.20
2019-04-21T07:48:21.955Z,43.20
2019-04-21T07:50:58.034Z,43.20
2019-04-21T07:53:36.776Z,42.90
2019-04-21T07:55:47.008Z,43.10
2019-04-21T07:58:38.669Z,43.30
2019-04-21T08:01:12.451Z,43.60
2019-04-21T08:03:38.934Z,43.50
2019-04-21T08:06:18.123Z,42.80
2019-04-21T08:08:42.193Z,42.10
2019-04-21T08:11:13.907Z,40.60
2019-04-21T08:16:10.986Z,34.90
2019-04-21T08:18:39.546Z,32.20
2019-04-21T08:21:05.794Z,29.70
2019-04-21T08:23:37.024Z,27.80
2019-04-21T08:26:12.153Z,26.00
2019-04-21T08:28:40.205Z,24.60
2019-04-21T08:31:09.943Z,23.40
2019-04-21T08:38:45.990Z,21.90
2019-04-21T08:41:08.427Z,23.70
2019-04-21T08:46:08.156Z,29.80
2019-04-21T08:48:43.978Z,33.10
2019-04-21T08:51:22.526Z,35.50
2019-04-21T08:53:49.040Z,37.30
2019-04-21T08:58:56.064Z,40.10
2019-04-21T09:01:30.664Z,41.20
2019-04-21T09:04:13.247Z,41.90
2019-04-21T09:06:58.982Z,42.80
2019-04-21T09:09:16.516Z,43.80
2019-04-21T09:11:50.977Z,44.00
2019-04-21T09:14:20.752Z,44.30
2019-04-21T09:16:44.400Z,44.60
2019-04-21T09:19:20.163Z,44.80
2019-04-21T09:24:24.627Z,45.10
2019-04-21T09:26:55.661Z,45.30
2019-04-21T09:29:17.199Z,45.50
2019-04-21T09:31:41.298Z,45.80
2019-04-21T09:34:08.951Z,46.30
2019-04-21T09:36:45.929Z,46.70
2019-04-21T09:39:16.555Z,46.90
2019-04-21T09:41:42.768Z,46.80
2019-04-21T09:44:17.254Z,46.60
2019-04-21T09:46:49.860Z,46.60
2019-04-21T09:49:18.650Z,46.10
2019-04-21T09:51:43.767Z,46.00
2019-04-21T09:54:20.471Z,45.90
2019-04-21T09:56:52.363Z,46.10
2019-04-21T09:59:20.617Z,46.20
2019-04-21T10:02:03.163Z,46.30
2019-04-21T10:04:18.822Z,46.50
2019-04-21T10:06:49.713Z,46.50
2019-04-21T10:09:21.765Z,46.70
2019-04-21T10:11:54.957Z,46.70
2019-04-21T10:14:24.291Z,46.30
2019-04-21T10:17:13.048Z,46.30
2019-04-21T10:19:42.025Z,46.30
2019-04-21T10:22:10.804Z,46.50
2019-04-21T10:24:40.509Z,46.20
2019-04-21T10:27:12.217Z,46.10
2019-04-21T10:29:43.005Z,45.90
2019-04-21T10:32:09.738Z,45.60
2019-04-21T10:34:39.054Z,45.50
2019-04-21T10:37:09.010Z,45.40
2019-04-21T10:39:40.002Z,45.40
2019-04-21T10:42:11.400Z,45.30
2019-04-21T10:44:41.011Z,45.50
2019-04-21T10:47:11.244Z,45.00
2019-04-21T10:49:40.296Z,44.10
2019-04-21T10:52:15.093Z,43.40
2019-04-21T10:55:07.262Z,42.90
2019-04-21T10:57:16.790Z,42.30
2019-04-21T10:59:50.555Z,41.70
2019-04-21T11:02:26.423Z,41.30
2019-04-21T11:04:56.583Z,41.00
2019-04-21T11:07:55.287Z,40.70
2019-04-21T11:10:16.126Z,40.10
2019-04-21T11:12:44.814Z,39.10
2019-04-21T11:15:14.814Z,37.90
2019-04-21T11:17:43.886Z,36.40
2019-04-21T11:20:13.434Z,34.90
2019-04-21T11:22:41.713Z,33.40
2019-04-21T11:25:11.180Z,31.80
2019-04-21T11:27:40.781Z,30.30
2019-04-21T11:30:13.824Z,28.80
2019-04-21T11:32:47.663Z,27.60
2019-04-21T11:35:17.060Z,26.40
2019-04-21T11:37:48.357Z,25.40
2019-04-21T11:40:19.792Z,24.60
2019-04-21T11:42:48.096Z,23.80
2019-04-21T11:45:24.359Z,23.10
2019-04-21T11:48:08.200Z,22.60
2019-04-21T11:50:37.109Z,22.10
2019-04-21T11:53:08.467Z,21.60
2019-04-21T11:55:39.755Z,21.40
2019-04-21T11:58:07.635Z,21.10
2019-04-21T12:00:35.888Z,20.90
2019-04-21T12:03:09.122Z,20.70
2019-04-21T12:05:39.511Z,20.50
2019-04-21T12:08:20.777Z,20.40
2019-04-21T12:10:40.005Z,20.30
2019-04-21T12:13:07.920Z,20.20
2019-04-21T12:15:36.772Z,20.30
2019-04-21T12:18:08.044Z,20.30
2019-04-21T12:20:43.654Z,20.20
2019-04-21T12:23:12.197Z,20.20
2019-04-21T12:25:47.259Z,20.10
2019-04-21T12:28:17.401Z,20.10
2019-04-21T12:30:47.388Z,20.00
2019-04-21T12:33:18.185Z,20.00
2019-04-21T12:35:46.344Z,20.00
2019-04-21T12:38:17.471Z,20.00
2019-04-21T12:40:46.543Z,19.90
2019-04-21T12:43:14.770Z,19.90
2019-04-21T12:45:44.039Z,19.90
2019-04-21T12:48:13.731Z,19.90
2019-04-21T12:50:43.757Z,20.00
2019-04-21T12:53:17.227Z,20.00
2019-04-21T12:55:45.860Z,20.10
2019-04-21T12:58:13.141Z,20.00
2019-04-21T13:00:41.263Z,20.00
2019-04-21T13:03:10.262Z,20.00
2019-04-21T13:05:40.135Z,19.90
2019-04-21T13:08:09.233Z,19.90
2019-04-21T13:10:38.115Z,19.90
2019-04-21T13:13:06.290Z,19.90
2019-04-21T13:15:35.583Z,20.00
2019-04-21T13:18:04.626Z,20.00
2019-04-21T13:20:33.976Z,20.00
2019-04-21T13:23:03.919Z,19.90
2019-04-21T13:25:32.293Z,19.90
2019-04-21T13:28:04.960Z,19.90
2019-04-21T13:30:36.115Z,19.90
2019-04-21T13:33:05.306Z,19.90
2019-04-21T13:35:33.322Z,19.90
2019-04-21T13:38:04.652Z,20.00
2019-04-21T13:41:04.968Z,20.00
2019-04-21T13:43:21.087Z,20.00
2019-04-21T13:45:49.919Z,20.00
2019-04-21T13:48:20.211Z,20.10
2019-04-21T13:50:49.055Z,20.10
2019-04-21T13:53:18.522Z,20.10
2019-04-21T13:55:46.815Z,20.10
2019-04-21T13:58:16.762Z,20.20
2019-04-21T14:00:45.588Z,20.20
2019-04-21T14:03:14.612Z,20.20
2019-04-21T14:05:42.751Z,20.20
2019-04-21T14:08:13.325Z,20.30
2019-04-21T14:10:45.125Z,20.30
2019-04-21T14:13:14.322Z,20.30
2019-04-21T14:15:48.144Z,20.30
2019-04-21T14:18:18.783Z,20.20
2019-04-21T14:20:46.934Z,20.20
2019-04-21T14:23:23.197Z,20.20
2019-04-21T14:25:45.811Z,20.20
2019-04-21T14:28:17.731Z,20.20
2019-04-21T14:30:48.275Z,20.20
2019-04-21T14:33:16.378Z,20.30
2019-04-21T14:35:45.110Z,20.30
2019-04-21T14:38:14.397Z,20.30
2019-04-21T14:40:44.102Z,20.30
2019-04-21T14:43:14.290Z,20.40
2019-04-21T14:45:59.226Z,20.40
2019-04-21T14:48:45.543Z,20.40
2019-04-21T14:51:15.095Z,20.40
2019-04-21T14:53:56.448Z,20.40
2019-04-21T14:56:27.107Z,20.50
2019-04-21T14:58:58.710Z,20.50
2019-04-21T15:01:26.190Z,20.50
2019-04-21T15:03:55.501Z,20.50
2019-04-21T15:06:27.377Z,20.40
2019-04-21T15:08:55.567Z,20.40
2019-04-21T15:11:26.251Z,20.40
2019-04-21T15:13:57.859Z,20.50
2019-04-21T15:16:29.239Z,20.50
2019-04-21T15:18:59.001Z,20.60
2019-04-21T15:21:27.178Z,20.90
2019-04-21T15:23:56.219Z,21.50
2019-04-21T15:26:26.203Z,21.80
2019-04-21T15:28:54.978Z,22.10
2019-04-21T15:31:28.692Z,22.60
2019-04-21T15:33:52.896Z,23.20
2019-04-21T15:36:21.019Z,23.80
2019-04-21T15:38:49.651Z,24.10
2019-04-21T15:41:18.569Z,24.30
2019-04-21T15:43:48.920Z,24.30
2019-04-21T15:46:16.843Z,24.20
2019-04-21T15:48:46.771Z,24.10
2019-04-21T15:51:17.779Z,24.10
2019-04-21T15:53:47.890Z,23.80
2019-04-21T15:56:20.675Z,23.40
2019-04-21T15:58:54.510Z,22.90
2019-04-21T16:01:28.244Z,22.50
2019-04-21T16:03:58.841Z,22.20
2019-04-21T16:06:27.654Z,21.80
2019-04-21T16:08:58.988Z,21.60
2019-04-21T16:11:28.019Z,21.40
2019-04-21T16:13:59.556Z,21.20
2019-04-21T16:16:30.870Z,21.10
2019-04-21T16:19:00.389Z,21.00
2019-04-21T16:21:29.528Z,20.90
2019-04-21T16:23:58.425Z,20.80
2019-04-21T16:26:26.746Z,20.70
2019-04-21T16:28:55.299Z,20.60
2019-04-21T16:31:24.482Z,20.50
2019-04-21T16:33:52.921Z,20.40
2019-04-21T16:36:20.885Z,20.30
2019-04-21T16:38:49.411Z,20.30
2019-04-21T16:41:18.258Z,20.20
2019-04-21T16:43:47.095Z,20.20
2019-04-21T16:46:15.783Z,20.20
2019-04-21T16:48:45.995Z,20.10
2019-04-21T16:51:13.658Z,20.10
2019-04-21T16:53:50.390Z,20.10
2019-04-21T16:56:26.915Z,20.10
2019-04-21T16:59:02.959Z,20.10
2019-04-21T17:01:36.438Z,20.10
2019-04-21T17:04:04.662Z,20.10
2019-04-21T17:06:33.225Z,20.00
2019-04-21T17:09:02.905Z,19.90
2019-04-21T17:11:35.130Z,19.80
2019-04-21T17:14:03.605Z,19.70
2019-04-21T17:17:00.364Z,19.70
2019-04-21T17:19:13.481Z,19.60
2019-04-21T17:21:34.222Z,19.60
2019-04-21T17:24:02.372Z,19.40
2019-04-21T17:26:34.499Z,19.30
2019-04-21T17:29:04.839Z,19.30
2019-04-21T17:31:34.025Z,19.20
2019-04-21T17:34:09.562Z,19.10
2019-04-21T17:36:32.740Z,19.00
2019-04-21T17:39:02.265Z,18.90
2019-04-21T17:41:40.003Z,18.80
2019-04-21T17:44:02.421Z,18.70
2019-04-21T17:46:43.126Z,18.60
2019-04-21T17:49:01.162Z,18.50
2019-04-21T17:51:39.478Z,18.30
2019-04-21T17:54:25.771Z,18.30
2019-04-21T17:57:14.762Z,18.20
2019-04-21T17:59:50.623Z,18.10
2019-04-21T18:02:07.681Z,17.90
2019-04-21T18:04:42.589Z,17.80
2019-04-21T18:07:08.418Z,17.80
2019-04-21T18:09:51.797Z,17.70
2019-04-21T18:12:14.804Z,17.50
2019-04-21T18:14:26.452Z,17.50
2019-04-21T18:16:54.397Z,17.40
2019-04-21T18:19:26.774Z,17.30
2019-04-21T18:22:02.078Z,17.20
2019-04-21T18:24:38.957Z,17.10
2019-04-21T18:27:04.327Z,17.00
2019-04-21T18:29:32.290Z,17.00
2019-04-21T18:32:01.097Z,16.90
2019-04-21T18:34:43.969Z,16.80
2019-04-21T18:37:33.112Z,16.70
2019-04-21T18:40:07.761Z,16.70
2019-04-21T18:42:47.897Z,16.60
2019-04-21T18:48:01.395Z,16.40
2019-04-21T18:50:40.364Z,16.40
2019-04-21T18:53:32.607Z,16.30
2019-04-21T18:55:49.603Z,16.30
2019-04-21T18:58:15.823Z,16.20
2019-04-21T19:00:45.817Z,16.10
2019-04-21T19:03:20.839Z,16.00
2019-04-21T19:05:47.823Z,16.00
2019-04-21T19:08:30.992Z,15.90
2019-04-21T19:11:10.557Z,15.90
2019-04-21T19:13:49.529Z,15.70
2019-04-21T19:16:22.583Z,15.70
2019-04-21T19:18:41.475Z,15.60
2019-04-21T19:21:03.055Z,15.50
2019-04-21T19:23:41.672Z,15.50
2019-04-21T19:26:12.317Z,15.40
2019-04-21T19:28:31.999Z,15.40
2019-04-21T19:31:04.911Z,15.30
2019-04-21T19:33:27.009Z,15.30
2019-04-21T19:35:41.586Z,15.20
2019-04-21T19:38:13.715Z,15.20
2019-04-21T19:40:59.181Z,15.10
2019-04-21T19:43:31.502Z,15.00
2019-04-21T19:45:58.280Z,15.00
2019-04-21T19:48:36.293Z,14.90
2019-04-21T19:51:08.679Z,14.90
2019-04-21T19:53:29.877Z,14.80
2019-04-21T19:55:49.941Z,14.80
2019-04-21T19:58:39.131Z,14.70
2019-04-21T20:01:09.713Z,14.70
2019-04-21T20:03:43.744Z,14.60
2019-04-21T20:06:26.900Z,14.50
2019-04-21T20:09:02.459Z,14.50
2019-04-21T20:11:27.166Z,14.50
2019-04-21T20:14:18.860Z,14.40
2019-04-21T20:16:33.888Z,14.30
2019-04-21T20:18:46.429Z,14.30
2019-04-21T20:21:10.131Z,14.30
2019-04-21T20:23:41.080Z,14.20
2019-04-21T20:26:09.998Z,14.10
2019-04-21T20:28:48.942Z,14.10
2019-04-21T20:31:23.357Z,14.00
2019-04-21T20:34:00.236Z,13.90
2019-04-21T20:36:29.546Z,13.90
2019-04-21T20:38:46.879Z,13.80
2019-04-21T20:41:22.471Z,13.80
2019-04-21T20:43:54.235Z,13.70
2019-04-21T20:46:25.466Z,13.70
2019-04-21T20:48:52.410Z,13.60
2019-04-21T20:51:21.909Z,13.60
2019-04-21T20:53:50.889Z,13.50
2019-04-21T20:56:15.626Z,13.50
2019-04-21T20:58:53.706Z,13.40
2019-04-21T21:01:33.259Z,13.40
2019-04-21T21:03:47.853Z,13.40
2019-04-21T21:06:24.975Z,13.40
2019-04-21T21:08:49.967Z,13.30
2019-04-21T21:11:15.528Z,13.30
2019-04-21T21:13:55.416Z,13.20
2019-04-21T21:16:29.213Z,13.20
2019-04-21T21:21:15.168Z,13.10
2019-04-21T21:23:48.052Z,13.10
2019-04-21T21:26:23.242Z,13.00
2019-04-21T21:28:45.605Z,12.90
2019-04-21T21:31:25.211Z,12.80
2019-04-21T21:33:58.987Z,12.80
2019-04-21T21:36:20.926Z,12.70
2019-04-21T21:38:55.660Z,12.70
2019-04-21T21:41:14.136Z,12.60
2019-04-21T21:43:37.729Z,12.50
2019-04-21T21:46:27.146Z,12.50
2019-04-21T21:48:44.947Z,12.40
2019-04-21T21:51:15.470Z,12.30
2019-04-21T21:53:38.785Z,12.20
2019-04-21T21:56:09.026Z,12.20
2019-04-21T21:58:42.370Z,12.10
2019-04-21T22:01:11.753Z,12.00
2019-04-21T22:03:46.247Z,12.00
2019-04-21T22:06:15.388Z,11.90
2019-04-21T22:08:41.011Z,11.90
2019-04-21T22:11:09.043Z,11.80
2019-04-21T22:13:49.042Z,11.70
2019-04-21T22:16:12.428Z,11.70
2019-04-21T22:18:59.909Z,11.60
2019-04-21T22:21:34.636Z,11.60
2019-04-21T22:23:52.834Z,11.50
2019-04-21T22:26:11.527Z,11.50
2019-04-21T22:28:40.224Z,11.40
2019-04-21T22:31:22.903Z,11.40
2019-04-21T22:33:54.866Z,11.30
2019-04-21T22:36:32.898Z,11.30
2019-04-21T22:39:08.952Z,11.20
2019-04-21T22:41:28.946Z,11.10
2019-04-21T22:43:51.639Z,11.00
2019-04-21T22:46:22.249Z,11.00
2019-04-21T22:48:53.111Z,10.90
2019-04-21T22:51:28.467Z,10.80
2019-04-21T22:53:52.418Z,10.80
2019-04-21T22:56:24.428Z,10.70
2019-04-21T22:58:53.084Z,10.70
2019-04-21T23:01:30.066Z,10.60
2019-04-21T23:03:55.525Z,10.50
2019-04-21T23:06:25.415Z,10.40
2019-04-21T23:08:51.210Z,10.40
2019-04-21T23:11:19.721Z,10.30
2019-04-21T23:14:01.995Z,10.20
2019-04-21T23:16:30.144Z,10.20
2019-04-21T23:19:11.423Z,10.10
2019-04-21T23:21:36.265Z,10.00
2019-04-21T23:24:11.796Z,10.00
2019-04-21T23:26:39.411Z,10.00
2019-04-21T23:29:15.405Z,9.90
2019-04-21T23:31:39.766Z,9.90
2019-04-21T23:33:52.562Z,9.80
2019-04-21T23:36:24.726Z,9.80
2019-04-21T23:38:56.429Z,9.70
2019-04-21T23:41:27.226Z,9.70
2019-04-21T23:43:59.199Z,9.60
2019-04-21T23:46:31.938Z,9.60
2019-04-21T23:49:12.451Z,9.50
2019-04-21T23:51:37.769Z,9.40
2019-04-21T23:53:59.571Z,9.40
2019-04-21T23:56:33.400Z,9.40
2019-04-21T23:59:02.762Z,9.30
